sensor_id;sensor_type;location;lat;lon;timestamp;P1;durP1;ratioP1;P2;durP2;ratioP2
22184;SDS011;11258;52.516;13.318;2023-02-15T00:01:42;33.00;;;19.53;;
22184;SDS011;11258;52.516;13.318;2023-02-15T00:04:08;37.17;;;18.87;;
22184;SDS011;11258;52.516;13.318;2023-02-15T00:06:35;33.03;;;19.13;;
22184;SDS011;11258;52.516;13.318;2023-02-15T00:09:01;39.87;;;20.63;;
22184;SDS011;11258;52.516;13.318;2023-02-15T00:11:27;39.30;;;20.70;;
22184;SDS011;11258;52.516;13.318;2023-02-15T00:14:06;36.53;;;19.87;;
22184;SDS011;11258;52.516;13.318;2023-02-15T00:16:33;38.80;;;21.03;;
22184;SDS011;11258;52.516;13.318;2023-02-15T00:18:59;38.40;;;20.13;;
22184;SDS011;11258;52.516;13.318;2023-02-15T00:21:29;38.20;;;19.87;;
22184;SDS011;11258;52.516;13.318;2023-02-15T00:23:56;36.37;;;20.00;;
22184;SDS011;11258;52.516;13.318;2023-02-15T00:26:23;41.23;;;21.73;;
22184;SDS011;11258;52.516;13.318;2023-02-15T00:28:49;41.57;;;21.47;;
22184;SDS011;11258;52.516;13.318;2023-02-15T00:31:15;38.40;;;20.80;;
22184;SDS011;11258;52.516;13.318;2023-02-15T00:33:40;39.20;;;20.50;;
22184;SDS011;11258;52.516;13.318;2023-02-15T00:36:07;39.10;;;20.57;;
22184;SDS011;11258;52.516;13.318;2023-02-15T00:38:34;41.00;;;21.83;;
22184;SDS011;11258;52.516;13.318;2023-02-15T00:41:01;38.77;;;22.30;;
22184;SDS011;11258;52.516;13.318;2023-02-15T00:43:29;37.83;;;21.53;;
22184;SDS011;11258;52.516;13.318;2023-02-15T00:45:55;39.90;;;22.37;;
22184;SDS011;11258;52.516;13.318;2023-02-15T00:48:22;37.80;;;21.50;;
22184;SDS011;11258;52.516;13.318;2023-02-15T00:50:52;43.40;;;23.87;;
22184;SDS011;11258;52.516;13.318;2023-02-15T00:53:19;41.33;;;22.17;;
22184;SDS011;11258;52.516;13.318;2023-02-15T00:55:46;37.53;;;21.83;;
22184;SDS011;11258;52.516;13.318;2023-02-15T00:58:12;42.87;;;21.63;;
22184;SDS011;11258;52.516;13.318;2023-02-15T01:00:38;40.33;;;22.53;;
22184;SDS011;11258;52.516;13.318;2023-02-15T01:03:05;39.30;;;22.27;;
22184;SDS011;11258;52.516;13.318;2023-02-15T01:05:31;43.40;;;23.73;;
22184;SDS011;11258;52.516;13.318;2023-02-15T01:07:57;43.73;;;22.23;;
22184;SDS011;11258;52.516;13.318;2023-02-15T01:10:23;42.37;;;22.70;;
22184;SDS011;11258;52.516;13.318;2023-02-15T01:12:50;43.70;;;23.27;;
22184;SDS011;11258;52.516;13.318;2023-02-15T01:15:17;39.97;;;22.17;;
22184;SDS011;11258;52.516;13.318;2023-02-15T01:17:43;46.40;;;23.40;;
22184;SDS011;11258;52.516;13.318;2023-02-15T01:20:14;44.03;;;23.23;;
22184;SDS011;11258;52.516;13.318;2023-02-15T01:22:40;44.93;;;23.93;;
22184;SDS011;11258;52.516;13.318;2023-02-15T01:25:05;41.10;;;23.13;;
22184;SDS011;11258;52.516;13.318;2023-02-15T01:27:31;42.53;;;22.83;;
22184;SDS011;11258;52.516;13.318;2023-02-15T01:29:57;42.57;;;23.43;;
22184;SDS011;11258;52.516;13.318;2023-02-15T01:32:23;45.27;;;23.77;;
22184;SDS011;11258;52.516;13.318;2023-02-15T01:34:48;45.17;;;23.50;;
22184;SDS011;11258;52.516;13.318;2023-02-15T01:37:14;47.73;;;24.37;;
22184;SDS011;11258;52.516;13.318;2023-02-15T01:39:40;43.77;;;22.63;;
22184;SDS011;11258;52.516;13.318;2023-02-15T01:42:07;46.33;;;24.70;;
22184;SDS011;11258;52.516;13.318;2023-02-15T01:47:23;42.60;;;22.83;;
22184;SDS011;11258;52.516;13.318;2023-02-15T01:52:46;46.17;;;23.97;;
22184;SDS011;11258;52.516;13.318;2023-02-15T01:55:17;46.03;;;23.90;;
22184;SDS011;11258;52.516;13.318;2023-02-15T01:57:43;42.27;;;22.97;;
22184;SDS011;11258;52.516;13.318;2023-02-15T02:00:11;45.73;;;23.10;;
22184;SDS011;11258;52.516;13.318;2023-02-15T02:02:38;46.70;;;24.67;;
22184;SDS011;11258;52.516;13.318;2023-02-15T02:05:07;45.70;;;24.70;;
22184;SDS011;11258;52.516;13.318;2023-02-15T02:07:33;42.10;;;23.87;;
22184;SDS011;11258;52.516;13.318;2023-02-15T02:10:03;48.30;;;24.73;;
22184;SDS011;11258;52.516;13.318;2023-02-15T02:12:30;46.67;;;24.60;;
22184;SDS011;11258;52.516;13.318;2023-02-15T02:14:56;52.57;;;26.40;;
22184;SDS011;11258;52.516;13.318;2023-02-15T02:43:04;55.47;;;28.17;;
22184;SDS011;11258;52.516;13.318;2023-02-15T02:45:45;52.33;;;27.53;;
22184;SDS011;11258;52.516;13.318;2023-02-15T02:48:19;53.17;;;27.67;;
22184;SDS011;11258;52.516;13.318;2023-02-15T02:50:48;58.00;;;28.73;;
22184;SDS011;11258;52.516;13.318;2023-02-15T02:53:13;52.83;;;27.17;;
22184;SDS011;11258;52.516;13.318;2023-02-15T02:55:53;58.60;;;27.10;;
22184;SDS011;11258;52.516;13.318;2023-02-15T03:01:21;58.40;;;29.73;;
22184;SDS011;11258;52.516;13.318;2023-02-15T03:06:52;62.47;;;29.87;;
22184;SDS011;11258;52.516;13.318;2023-02-15T03:11:59;58.87;;;30.07;;
22184;SDS011;11258;52.516;13.318;2023-02-15T03:14:26;60.43;;;29.20;;
22184;SDS011;11258;52.516;13.318;2023-02-15T03:16:52;63.67;;;31.03;;
22184;SDS011;11258;52.516;13.318;2023-02-15T03:19:30;70.87;;;32.17;;
22184;SDS011;11258;52.516;13.318;2023-02-15T03:22:21;63.00;;;30.67;;
22184;SDS011;11258;52.516;13.318;2023-02-15T03:24:53;76.53;;;33.57;;
22184;SDS011;11258;52.516;13.318;2023-02-15T03:27:22;69.13;;;33.47;;
22184;SDS011;11258;52.516;13.318;2023-02-15T03:29:56;69.47;;;32.50;;
22184;SDS011;11258;52.516;13.318;2023-02-15T03:32:24;72.43;;;32.53;;
22184;SDS011;11258;52.516;13.318;2023-02-15T03:34:53;76.67;;;34.13;;
22184;SDS011;11258;52.516;13.318;2023-02-15T03:37:23;67.33;;;32.40;;
22184;SDS011;11258;52.516;13.318;2023-02-15T03:42:55;59.03;;;28.63;;
22184;SDS011;11258;52.516;13.318;2023-02-15T03:45:27;64.53;;;29.90;;
22184;SDS011;11258;52.516;13.318;2023-02-15T03:47:56;65.63;;;29.50;;
22184;SDS011;11258;52.516;13.318;2023-02-15T03:50:26;64.93;;;28.87;;
22184;SDS011;11258;52.516;13.318;2023-02-15T03:53:14;65.07;;;29.80;;
22184;SDS011;11258;52.516;13.318;2023-02-15T03:55:46;57.83;;;29.53;;
22184;SDS011;11258;52.516;13.318;2023-02-15T03:58:12;60.47;;;27.10;;
22184;SDS011;11258;52.516;13.318;2023-02-15T04:00:57;61.33;;;30.00;;
22184;SDS011;11258;52.516;13.318;2023-02-15T04:03:45;63.30;;;30.27;;
22184;SDS011;11258;52.516;13.318;2023-02-15T04:06:20;65.03;;;29.27;;
22184;SDS011;11258;52.516;13.318;2023-02-15T04:08:45;61.33;;;27.87;;
22184;SDS011;11258;52.516;13.318;2023-02-15T04:11:30;68.83;;;31.43;;
22184;SDS011;11258;52.516;13.318;2023-02-15T04:13:55;62.43;;;29.60;;
22184;SDS011;11258;52.516;13.318;2023-02-15T04:16:23;68.97;;;31.20;;
22184;SDS011;11258;52.516;13.318;2023-02-15T04:18:49;71.33;;;32.93;;
22184;SDS011;11258;52.516;13.318;2023-02-15T04:21:33;65.30;;;32.17;;
22184;SDS011;11258;52.516;13.318;2023-02-15T04:24:18;69.33;;;32.50;;
22184;SDS011;11258;52.516;13.318;2023-02-15T04:27:03;66.00;;;31.97;;
22184;SDS011;11258;52.516;13.318;2023-02-15T04:29:30;68.00;;;31.43;;
22184;SDS011;11258;52.516;13.318;2023-02-15T04:31:57;69.27;;;31.40;;
22184;SDS011;11258;52.516;13.318;2023-02-15T04:34:24;63.67;;;30.40;;
22184;SDS011;11258;52.516;13.318;2023-02-15T04:36:50;66.00;;;32.43;;
22184;SDS011;11258;52.516;13.318;2023-02-15T04:39:16;65.53;;;31.57;;
22184;SDS011;11258;52.516;13.318;2023-02-15T04:41:43;64.43;;;29.43;;
22184;SDS011;11258;52.516;13.318;2023-02-15T04:44:09;62.30;;;29.63;;
22184;SDS011;11258;52.516;13.318;2023-02-15T04:46:35;59.03;;;29.00;;
22184;SDS011;11258;52.516;13.318;2023-02-15T04:49:00;60.30;;;28.77;;
22184;SDS011;11258;52.516;13.318;2023-02-15T04:51:26;62.77;;;30.43;;
22184;SDS011;11258;52.516;13.318;2023-02-15T04:53:52;67.13;;;30.13;;
22184;SDS011;11258;52.516;13.318;2023-02-15T04:56:18;67.17;;;31.33;;
22184;SDS011;11258;52.516;13.318;2023-02-15T04:58:44;64.90;;;30.43;;
22184;SDS011;11258;52.516;13.318;2023-02-15T05:01:10;77.83;;;39.87;;
22184;SDS011;11258;52.516;13.318;2023-02-15T05:03:36;66.40;;;31.53;;
22184;SDS011;11258;52.516;13.318;2023-02-15T05:06:02;68.27;;;31.03;;
22184;SDS011;11258;52.516;13.318;2023-02-15T05:08:28;64.47;;;30.93;;
22184;SDS011;11258;52.516;13.318;2023-02-15T05:10:54;68.67;;;30.47;;
22184;SDS011;11258;52.516;13.318;2023-02-15T05:13:20;73.30;;;31.57;;
22184;SDS011;11258;52.516;13.318;2023-02-15T05:15:49;65.73;;;31.00;;
22184;SDS011;11258;52.516;13.318;2023-02-15T05:18:16;67.77;;;30.07;;
22184;SDS011;11258;52.516;13.318;2023-02-15T05:20:43;70.73;;;31.37;;
22184;SDS011;11258;52.516;13.318;2023-02-15T05:23:08;65.03;;;30.27;;
22184;SDS011;11258;52.516;13.318;2023-02-15T05:25:34;71.53;;;31.37;;
22184;SDS011;11258;52.516;13.318;2023-02-15T05:28:19;67.83;;;31.10;;
22184;SDS011;11258;52.516;13.318;2023-02-15T05:30:49;68.70;;;31.17;;
22184;SDS011;11258;52.516;13.318;2023-02-15T05:33:23;65.70;;;30.23;;
22184;SDS011;11258;52.516;13.318;2023-02-15T05:35:49;64.90;;;29.17;;
22184;SDS011;11258;52.516;13.318;2023-02-15T05:38:16;69.17;;;31.17;;
22184;SDS011;11258;52.516;13.318;2023-02-15T05:40:41;70.17;;;31.33;;
22184;SDS011;11258;52.516;13.318;2023-02-15T05:43:07;71.57;;;30.50;;
22184;SDS011;11258;52.516;13.318;2023-02-15T05:45:32;62.13;;;29.13;;
22184;SDS011;11258;52.516;13.318;2023-02-15T05:47:58;70.10;;;31.27;;
22184;SDS011;11258;52.516;13.318;2023-02-15T05:50:24;71.47;;;32.43;;
22184;SDS011;11258;52.516;13.318;2023-02-15T05:52:50;65.53;;;31.90;;
22184;SDS011;11258;52.516;13.318;2023-02-15T05:55:16;78.97;;;31.70;;
22184;SDS011;11258;52.516;13.318;2023-02-15T05:57:42;71.27;;;30.90;;
22184;SDS011;11258;52.516;13.318;2023-02-15T06:00:07;75.90;;;31.13;;
22184;SDS011;11258;52.516;13.318;2023-02-15T06:02:35;70.30;;;30.80;;
22184;SDS011;11258;52.516;13.318;2023-02-15T06:05:02;78.20;;;33.73;;
22184;SDS011;11258;52.516;13.318;2023-02-15T06:07:28;73.40;;;32.00;;
22184;SDS011;11258;52.516;13.318;2023-02-15T06:09:54;70.10;;;31.53;;
22184;SDS011;11258;52.516;13.318;2023-02-15T06:12:19;70.67;;;31.50;;
22184;SDS011;11258;52.516;13.318;2023-02-15T06:14:45;71.30;;;32.60;;
22184;SDS011;11258;52.516;13.318;2023-02-15T06:17:11;78.50;;;33.07;;
22184;SDS011;11258;52.516;13.318;2023-02-15T06:19:36;84.27;;;34.00;;
22184;SDS011;11258;52.516;13.318;2023-02-15T06:22:02;71.33;;;30.23;;
22184;SDS011;11258;52.516;13.318;2023-02-15T06:24:27;70.07;;;31.10;;
22184;SDS011;11258;52.516;13.318;2023-02-15T06:26:53;81.07;;;32.67;;
22184;SDS011;11258;52.516;13.318;2023-02-15T06:29:19;81.63;;;32.73;;
22184;SDS011;11258;52.516;13.318;2023-02-15T06:31:44;76.73;;;32.60;;
22184;SDS011;11258;52.516;13.318;2023-02-15T06:34:10;82.97;;;32.07;;
22184;SDS011;11258;52.516;13.318;2023-02-15T06:36:36;78.60;;;32.63;;
22184;SDS011;11258;52.516;13.318;2023-02-15T06:39:02;80.63;;;33.27;;
22184;SDS011;11258;52.516;13.318;2023-02-15T06:41:29;83.90;;;32.43;;
22184;SDS011;11258;52.516;13.318;2023-02-15T06:43:54;96.80;;;34.57;;
22184;SDS011;11258;52.516;13.318;2023-02-15T06:46:20;81.10;;;33.47;;
22184;SDS011;11258;52.516;13.318;2023-02-15T06:48:46;85.57;;;33.87;;
22184;SDS011;11258;52.516;13.318;2023-02-15T06:51:11;86.57;;;35.57;;
22184;SDS011;11258;52.516;13.318;2023-02-15T06:53:37;85.13;;;34.47;;
22184;SDS011;11258;52.516;13.318;2023-02-15T06:56:03;94.60;;;35.33;;
22184;SDS011;11258;52.516;13.318;2023-02-15T06:58:35;85.80;;;34.57;;
22184;SDS011;11258;52.516;13.318;2023-02-15T07:01:04;82.40;;;34.13;;
22184;SDS011;11258;52.516;13.318;2023-02-15T07:03:31;91.67;;;35.53;;
22184;SDS011;11258;52.516;13.318;2023-02-15T07:05:59;77.03;;;32.13;;
22184;SDS011;11258;52.516;13.318;2023-02-15T07:08:25;91.40;;;35.90;;
22184;SDS011;11258;52.516;13.318;2023-02-15T07:10:52;85.70;;;32.97;;
22184;SDS011;11258;52.516;13.318;2023-02-15T07:13:19;79.83;;;32.43;;
22184;SDS011;11258;52.516;13.318;2023-02-15T07:15:46;79.60;;;31.77;;
22184;SDS011;11258;52.516;13.318;2023-02-15T07:18:12;75.63;;;30.23;;
22184;SDS011;11258;52.516;13.318;2023-02-15T07:20:38;73.00;;;30.43;;
22184;SDS011;11258;52.516;13.318;2023-02-15T07:23:06;70.93;;;30.23;;
22184;SDS011;11258;52.516;13.318;2023-02-15T07:25:33;80.77;;;31.00;;
22184;SDS011;11258;52.516;13.318;2023-02-15T07:27:59;72.50;;;31.07;;
22184;SDS011;11258;52.516;13.318;2023-02-15T07:30:26;77.03;;;30.43;;
22184;SDS011;11258;52.516;13.318;2023-02-15T07:32:59;97.03;;;30.40;;
22184;SDS011;11258;52.516;13.318;2023-02-15T07:35:47;79.90;;;30.03;;
22184;SDS011;11258;52.516;13.318;2023-02-15T07:38:17;82.23;;;30.47;;
22184;SDS011;11258;52.516;13.318;2023-02-15T07:40:43;93.83;;;31.20;;
22184;SDS011;11258;52.516;13.318;2023-02-15T07:43:09;85.13;;;32.07;;
22184;SDS011;11258;52.516;13.318;2023-02-15T07:45:36;81.43;;;31.27;;
22184;SDS011;11258;52.516;13.318;2023-02-15T07:48:02;87.50;;;32.10;;
22184;SDS011;11258;52.516;13.318;2023-02-15T07:50:28;67.37;;;28.87;;
22184;SDS011;11258;52.516;13.318;2023-02-15T07:52:54;83.00;;;30.37;;
22184;SDS011;11258;52.516;13.318;2023-02-15T07:55:20;73.57;;;31.17;;
22184;SDS011;11258;52.516;13.318;2023-02-15T07:57:46;86.67;;;29.90;;
22184;SDS011;11258;52.516;13.318;2023-02-15T08:00:13;72.30;;;29.93;;
22184;SDS011;11258;52.516;13.318;2023-02-15T08:02:40;72.93;;;29.73;;
22184;SDS011;11258;52.516;13.318;2023-02-15T08:05:06;72.93;;;31.30;;
22184;SDS011;11258;52.516;13.318;2023-02-15T08:07:32;63.80;;;28.97;;
22184;SDS011;11258;52.516;13.318;2023-02-15T08:09:58;76.37;;;30.73;;
22184;SDS011;11258;52.516;13.318;2023-02-15T08:12:27;66.77;;;29.37;;
22184;SDS011;11258;52.516;13.318;2023-02-15T08:14:52;77.83;;;29.00;;
22184;SDS011;11258;52.516;13.318;2023-02-15T08:17:18;64.60;;;27.67;;
22184;SDS011;11258;52.516;13.318;2023-02-15T08:19:44;62.50;;;27.00;;
22184;SDS011;11258;52.516;13.318;2023-02-15T08:22:12;60.00;;;28.10;;
22184;SDS011;11258;52.516;13.318;2023-02-15T08:24:39;63.07;;;28.70;;
22184;SDS011;11258;52.516;13.318;2023-02-15T08:27:06;69.07;;;29.57;;
22184;SDS011;11258;52.516;13.318;2023-02-15T08:29:34;67.37;;;29.13;;
22184;SDS011;11258;52.516;13.318;2023-02-15T08:32:02;60.43;;;29.10;;
22184;SDS011;11258;52.516;13.318;2023-02-15T08:34:30;60.40;;;28.40;;
22184;SDS011;11258;52.516;13.318;2023-02-15T08:37:01;65.40;;;27.40;;
22184;SDS011;11258;52.516;13.318;2023-02-15T08:39:27;56.13;;;26.43;;
22184;SDS011;11258;52.516;13.318;2023-02-15T08:41:53;66.80;;;29.50;;
22184;SDS011;11258;52.516;13.318;2023-02-15T08:44:19;59.63;;;27.23;;
22184;SDS011;11258;52.516;13.318;2023-02-15T08:46:45;63.57;;;27.83;;
22184;SDS011;11258;52.516;13.318;2023-02-15T08:49:13;64.70;;;28.50;;
22184;SDS011;11258;52.516;13.318;2023-02-15T08:51:45;60.63;;;27.00;;
22184;SDS011;11258;52.516;13.318;2023-02-15T08:54:13;54.83;;;26.97;;
22184;SDS011;11258;52.516;13.318;2023-02-15T08:56:42;53.53;;;26.57;;
22184;SDS011;11258;52.516;13.318;2023-02-15T08:59:13;53.10;;;25.67;;
22184;SDS011;11258;52.516;13.318;2023-02-15T09:01:41;66.47;;;28.30;;
22184;SDS011;11258;52.516;13.318;2023-02-15T09:04:07;56.10;;;27.43;;
22184;SDS011;11258;52.516;13.318;2023-02-15T09:06:33;56.67;;;26.77;;
22184;SDS011;11258;52.516;13.318;2023-02-15T09:09:00;52.23;;;25.50;;
22184;SDS011;11258;52.516;13.318;2023-02-15T09:11:27;55.83;;;26.80;;
22184;SDS011;11258;52.516;13.318;2023-02-15T09:13:55;51.20;;;24.57;;
22184;SDS011;11258;52.516;13.318;2023-02-15T09:16:22;50.40;;;26.90;;
22184;SDS011;11258;52.516;13.318;2023-02-15T09:18:49;48.37;;;24.93;;
22184;SDS011;11258;52.516;13.318;2023-02-15T09:21:16;49.47;;;24.33;;
22184;SDS011;11258;52.516;13.318;2023-02-15T09:23:47;52.77;;;26.43;;
22184;SDS011;11258;52.516;13.318;2023-02-15T09:26:19;50.43;;;24.47;;
22184;SDS011;11258;52.516;13.318;2023-02-15T09:28:47;54.40;;;25.43;;
22184;SDS011;11258;52.516;13.318;2023-02-15T09:31:15;50.63;;;25.40;;
22184;SDS011;11258;52.516;13.318;2023-02-15T09:33:46;44.93;;;22.93;;
22184;SDS011;11258;52.516;13.318;2023-02-15T09:38:46;42.77;;;21.90;;
22184;SDS011;11258;52.516;13.318;2023-02-15T09:43:52;44.10;;;22.50;;
22184;SDS011;11258;52.516;13.318;2023-02-15T09:50:06;42.73;;;22.03;;
22184;SDS011;11258;52.516;13.318;2023-02-15T10:09:19;40.97;;;21.23;;
22184;SDS011;11258;52.516;13.318;2023-02-15T10:12:38;44.97;;;21.20;;
22184;SDS011;11258;52.516;13.318;2023-02-15T10:24:09;37.27;;;20.47;;
22184;SDS011;11258;52.516;13.318;2023-02-15T10:26:59;39.10;;;20.60;;
22184;SDS011;11258;52.516;13.318;2023-02-15T10:29:39;35.90;;;20.77;;
22184;SDS011;11258;52.516;13.318;2023-02-15T10:35:00;43.10;;;21.90;;
22184;SDS011;11258;52.516;13.318;2023-02-15T10:42:56;39.60;;;20.97;;
22184;SDS011;11258;52.516;13.318;2023-02-15T10:50:58;38.27;;;20.33;;
22184;SDS011;11258;52.516;13.318;2023-02-15T11:07:16;37.73;;;20.70;;
22184;SDS011;11258;52.516;13.318;2023-02-15T11:09:47;39.77;;;21.87;;
22184;SDS011;11258;52.516;13.318;2023-02-15T11:12:30;38.63;;;19.90;;
22184;SDS011;11258;52.516;13.318;2023-02-15T11:14:59;37.33;;;21.43;;
22184;SDS011;11258;52.516;13.318;2023-02-15T11:17:37;38.50;;;21.50;;
22184;SDS011;11258;52.516;13.318;2023-02-15T11:20:25;35.47;;;20.67;;
22184;SDS011;11258;52.516;13.318;2023-02-15T11:22:58;38.60;;;20.67;;
22184;SDS011;11258;52.516;13.318;2023-02-15T11:25:29;36.90;;;19.57;;
22184;SDS011;11258;52.516;13.318;2023-02-15T11:27:57;54.13;;;30.47;;
22184;SDS011;11258;52.516;13.318;2023-02-15T11:30:29;33.70;;;20.30;;
22184;SDS011;11258;52.516;13.318;2023-02-15T11:33:05;37.33;;;20.47;;
22184;SDS011;11258;52.516;13.318;2023-02-15T11:35:49;37.47;;;20.70;;
22184;SDS011;11258;52.516;13.318;2023-02-15T11:38:21;36.97;;;20.23;;
22184;SDS011;11258;52.516;13.318;2023-02-15T11:40:54;36.43;;;19.47;;
22184;SDS011;11258;52.516;13.318;2023-02-15T11:45:54;31.47;;;17.53;;
22184;SDS011;11258;52.516;13.318;2023-02-15T11:48:19;34.90;;;19.97;;
22184;SDS011;11258;52.516;13.318;2023-02-15T11:50:45;28.17;;;17.53;;
22184;SDS011;11258;52.516;13.318;2023-02-15T11:53:53;36.93;;;19.57;;
22184;SDS011;11258;52.516;13.318;2023-02-15T11:56:02;31.13;;;18.00;;
22184;SDS011;11258;52.516;13.318;2023-02-15T11:58:39;30.93;;;17.83;;
22184;SDS011;11258;52.516;13.318;2023-02-15T12:06:36;32.87;;;18.93;;
22184;SDS011;11258;52.516;13.318;2023-02-15T12:11:52;31.00;;;17.27;;
22184;SDS011;11258;52.516;13.318;2023-02-15T12:14:17;35.00;;;18.37;;
22184;SDS011;11258;52.516;13.318;2023-02-15T12:21:54;26.53;;;16.43;;
22184;SDS011;11258;52.516;13.318;2023-02-15T12:24:23;33.00;;;17.57;;
22184;SDS011;11258;52.516;13.318;2023-02-15T12:27:34;29.67;;;17.70;;
22184;SDS011;11258;52.516;13.318;2023-02-15T12:29:42;29.47;;;17.07;;
22184;SDS011;11258;52.516;13.318;2023-02-15T12:32:17;34.27;;;18.80;;
22184;SDS011;11258;52.516;13.318;2023-02-15T12:34:53;32.90;;;19.03;;
22184;SDS011;11258;52.516;13.318;2023-02-15T12:37:25;29.17;;;16.23;;
22184;SDS011;11258;52.516;13.318;2023-02-15T12:39:57;29.13;;;16.97;;
22184;SDS011;11258;52.516;13.318;2023-02-15T12:42:25;30.43;;;17.77;;
22184;SDS011;11258;52.516;13.318;2023-02-15T12:45:19;34.07;;;18.17;;
22184;SDS011;11258;52.516;13.318;2023-02-15T12:47:45;34.40;;;17.50;;
22184;SDS011;11258;52.516;13.318;2023-02-15T12:50:15;29.77;;;18.07;;
22184;SDS011;11258;52.516;13.318;2023-02-15T12:52:48;30.43;;;18.37;;
22184;SDS011;11258;52.516;13.318;2023-02-15T12:55:26;32.23;;;17.37;;
22184;SDS011;11258;52.516;13.318;2023-02-15T12:58:12;27.30;;;17.03;;
22184;SDS011;11258;52.516;13.318;2023-02-15T13:00:44;32.57;;;18.83;;
22184;SDS011;11258;52.516;13.318;2023-02-15T13:03:18;29.67;;;17.13;;
22184;SDS011;11258;52.516;13.318;2023-02-15T13:05:47;31.47;;;18.13;;
22184;SDS011;11258;52.516;13.318;2023-02-15T13:13:33;29.53;;;16.43;;
22184;SDS011;11258;52.516;13.318;2023-02-15T13:16:11;31.03;;;18.30;;
22184;SDS011;11258;52.516;13.318;2023-02-15T13:18:47;30.13;;;17.83;;
22184;SDS011;11258;52.516;13.318;2023-02-15T13:21:19;25.87;;;16.30;;
22184;SDS011;11258;52.516;13.318;2023-02-15T13:23:52;27.60;;;16.20;;
22184;SDS011;11258;52.516;13.318;2023-02-15T13:26:22;31.90;;;18.37;;
22184;SDS011;11258;52.516;13.318;2023-02-15T13:29:12;30.80;;;18.00;;
22184;SDS011;11258;52.516;13.318;2023-02-15T13:31:47;28.60;;;16.50;;
22184;SDS011;11258;52.516;13.318;2023-02-15T13:34:20;32.20;;;17.47;;
22184;SDS011;11258;52.516;13.318;2023-02-15T14:03:42;22.50;;;15.23;;
22184;SDS011;11258;52.516;13.318;2023-02-15T14:19:19;31.13;;;18.00;;
22184;SDS011;11258;52.516;13.318;2023-02-15T14:21:56;29.87;;;17.97;;
22184;SDS011;11258;52.516;13.318;2023-02-15T14:32:30;31.03;;;18.73;;
22184;SDS011;11258;52.516;13.318;2023-02-15T14:35:05;28.63;;;16.13;;
22184;SDS011;11258;52.516;13.318;2023-02-15T14:43:27;25.83;;;16.13;;
22184;SDS011;11258;52.516;13.318;2023-02-15T14:48:33;28.53;;;15.90;;
22184;SDS011;11258;52.516;13.318;2023-02-15T14:51:06;29.10;;;16.37;;
22184;SDS011;11258;52.516;13.318;2023-02-15T15:01:14;26.87;;;15.87;;
22184;SDS011;11258;52.516;13.318;2023-02-15T15:03:47;27.70;;;16.17;;
22184;SDS011;11258;52.516;13.318;2023-02-15T15:06:33;23.63;;;14.57;;
22184;SDS011;11258;52.516;13.318;2023-02-15T15:11:53;27.83;;;15.67;;
22184;SDS011;11258;52.516;13.318;2023-02-15T15:16:57;23.77;;;15.00;;
22184;SDS011;11258;52.516;13.318;2023-02-15T15:22:18;28.03;;;15.37;;
22184;SDS011;11258;52.516;13.318;2023-02-15T15:24:48;23.03;;;15.00;;
22184;SDS011;11258;52.516;13.318;2023-02-15T15:33:23;25.13;;;14.83;;
22184;SDS011;11258;52.516;13.318;2023-02-15T15:49:46;25.10;;;14.83;;
22184;SDS011;11258;52.516;13.318;2023-02-15T15:52:16;23.33;;;14.47;;
22184;SDS011;11258;52.516;13.318;2023-02-15T15:54:44;23.60;;;13.70;;
22184;SDS011;11258;52.516;13.318;2023-02-15T15:57:55;20.27;;;12.40;;
22184;SDS011;11258;52.516;13.318;2023-02-15T16:00:05;24.07;;;14.00;;
22184;SDS011;11258;52.516;13.318;2023-02-15T16:02:52;19.43;;;13.03;;
22184;SDS011;11258;52.516;13.318;2023-02-15T16:05:18;21.23;;;13.73;;
22184;SDS011;11258;52.516;13.318;2023-02-15T16:07:45;22.10;;;12.40;;
22184;SDS011;11258;52.516;13.318;2023-02-15T16:10:21;18.87;;;11.93;;
22184;SDS011;11258;52.516;13.318;2023-02-15T16:12:48;19.97;;;11.50;;
22184;SDS011;11258;52.516;13.318;2023-02-15T16:17:41;17.93;;;11.30;;
22184;SDS011;11258;52.516;13.318;2023-02-15T16:20:20;17.80;;;11.33;;
22184;SDS011;11258;52.516;13.318;2023-02-15T16:22:49;19.77;;;10.77;;
22184;SDS011;11258;52.516;13.318;2023-02-15T16:25:47;18.00;;;11.17;;
22184;SDS011;11258;52.516;13.318;2023-02-15T16:28:30;15.60;;;9.87;;
22184;SDS011;11258;52.516;13.318;2023-02-15T16:31:04;19.27;;;11.20;;
22184;SDS011;11258;52.516;13.318;2023-02-15T16:33:38;16.13;;;9.37;;
22184;SDS011;11258;52.516;13.318;2023-02-15T16:36:05;16.70;;;10.47;;
22184;SDS011;11258;52.516;13.318;2023-02-15T16:41:13;19.37;;;10.17;;
22184;SDS011;11258;52.516;13.318;2023-02-15T16:43:42;16.60;;;10.30;;
22184;SDS011;11258;52.516;13.318;2023-02-15T16:46:11;17.70;;;10.27;;
22184;SDS011;11258;52.516;13.318;2023-02-15T16:48:43;17.03;;;11.30;;
22184;SDS011;11258;52.516;13.318;2023-02-15T16:51:18;17.17;;;10.67;;
22184;SDS011;11258;52.516;13.318;2023-02-15T16:53:46;16.43;;;10.40;;
22184;SDS011;11258;52.516;13.318;2023-02-15T16:56:15;18.30;;;10.57;;
22184;SDS011;11258;52.516;13.318;2023-02-15T16:58:48;15.37;;;10.10;;
22184;SDS011;11258;52.516;13.318;2023-02-15T17:01:15;14.83;;;10.47;;
22184;SDS011;11258;52.516;13.318;2023-02-15T17:03:44;16.00;;;9.97;;
22184;SDS011;11258;52.516;13.318;2023-02-15T17:06:18;21.80;;;11.77;;
22184;SDS011;11258;52.516;13.318;2023-02-15T17:08:45;19.57;;;11.97;;
22184;SDS011;11258;52.516;13.318;2023-02-15T17:11:21;22.70;;;11.60;;
22184;SDS011;11258;52.516;13.318;2023-02-15T17:16:32;15.83;;;10.87;;
22184;SDS011;11258;52.516;13.318;2023-02-15T17:19:09;19.10;;;11.03;;
22184;SDS011;11258;52.516;13.318;2023-02-15T17:22:17;19.50;;;11.63;;
22184;SDS011;11258;52.516;13.318;2023-02-15T17:24:43;20.23;;;10.87;;
22184;SDS011;11258;52.516;13.318;2023-02-15T17:27:27;16.87;;;10.63;;
22184;SDS011;11258;52.516;13.318;2023-02-15T17:29:56;18.60;;;12.27;;
22184;SDS011;11258;52.516;13.318;2023-02-15T17:32:28;19.27;;;11.57;;
22184;SDS011;11258;52.516;13.318;2023-02-15T17:34:59;23.03;;;12.30;;
22184;SDS011;11258;52.516;13.318;2023-02-15T17:37:30;21.50;;;12.53;;
22184;SDS011;11258;52.516;13.318;2023-02-15T17:39:56;19.63;;;11.17;;
22184;SDS011;11258;52.516;13.318;2023-02-15T17:42:24;20.37;;;12.07;;
22184;SDS011;11258;52.516;13.318;2023-02-15T17:44:49;19.47;;;11.47;;
22184;SDS011;11258;52.516;13.318;2023-02-15T17:47:19;20.27;;;12.30;;
22184;SDS011;11258;52.516;13.318;2023-02-15T17:49:47;25.57;;;13.13;;
22184;SDS011;11258;52.516;13.318;2023-02-15T17:52:16;26.30;;;14.23;;
22184;SDS011;11258;52.516;13.318;2023-02-15T17:54:42;28.67;;;13.23;;
22184;SDS011;11258;52.516;13.318;2023-02-15T17:57:28;22.50;;;13.03;;
22184;SDS011;11258;52.516;13.318;2023-02-15T17:59:55;23.53;;;12.37;;
22184;SDS011;11258;52.516;13.318;2023-02-15T18:02:39;22.00;;;13.10;;
22184;SDS011;11258;52.516;13.318;2023-02-15T18:05:23;25.33;;;14.53;;
22184;SDS011;11258;52.516;13.318;2023-02-15T18:08:12;26.60;;;14.87;;
22184;SDS011;11258;52.516;13.318;2023-02-15T18:10:58;27.03;;;15.13;;
22184;SDS011;11258;52.516;13.318;2023-02-15T18:13:43;28.20;;;16.10;;